Time;durP1;ratioP1;P1;durP2;ratioP2;P2;SDS_P1;SDS_P2;PMS_P1;PMS_P2;Temp;Humidity;BMP_temperature;BMP_pressure;BME280_temperature;BME280_humidity;BME280_pressure;Samples;Min_cycle;Max_cycle;Signal;HPM_P1;HPM_P2
2022/04/19 00:00:52;;;;;;;7.03;3.60;;;4.10;99.90;;;;;;5019588;28;20362;-61
2022/04/19 00:03:18;;;;;;;6.40;3.30;;;4.00;99.90;;;;;;5010532;28;20054;-61
2022/04/19 00:05:45;;;;;;;8.30;3.63;;;3.90;99.90;;;;;;5022092;28;20099;-62
2022/04/19 00:08:12;;;;;;;7.35;3.65;;;3.90;99.90;;;;;;5015376;28;20030;-62
2022/04/19 00:10:38;;;;;;;8.00;3.67;;;4.00;99.90;;;;;;5012535;28;20053;-61
2022/04/19 00:13:05;;;;;;;6.65;3.40;;;3.90;99.90;;;;;;5016875;28;20034;-61
2022/04/19 00:15:32;;;;;;;6.35;3.35;;;3.90;99.90;;;;;;5013005;28;20069;-62
2022/04/19 00:17:59;;;;;;;7.07;3.78;;;3.90;99.90;;;;;;5011402;28;20146;-61
2022/04/19 00:20:27;;;;;;;9.68;3.97;;;3.90;99.90;;;;;;4998680;28;20033;-61
2022/04/19 00:22:53;;;;;;;7.15;3.60;;;3.90;99.90;;;;;;5021735;28;20523;-61
2022/04/19 00:25:19;;;;;;;8.82;3.70;;;3.90;99.90;;;;;;4994402;28;20113;-61
2022/04/19 00:27:45;;;;;;;5.78;3.22;;;3.80;99.90;;;;;;5017470;28;20343;-61
2022/04/19 00:30:12;;;;;;;7.47;4.20;;;3.60;99.90;;;;;;5021609;28;20026;-61
2022/04/19 00:32:38;;;;;;;8.40;3.97;;;3.60;99.90;;;;;;5017280;28;20072;-61
2022/04/19 00:35:06;;;;;;;7.68;3.97;;;3.70;99.90;;;;;;4997594;28;20048;-61
2022/04/19 00:37:33;;;;;;;7.28;3.90;;;3.80;99.90;;;;;;5020514;28;20018;-61
2022/04/19 00:40:00;;;;;;;10.00;4.35;;;3.90;99.90;;;;;;5024246;28;20036;-61
2022/04/19 00:42:28;;;;;;;6.63;3.85;;;3.90;99.90;;;;;;5016886;28;20105;-61
2022/04/19 00:44:58;;;;;;;8.55;4.05;;;3.90;99.90;;;;;;5021056;28;20021;-61
2022/04/19 00:47:25;;;;;;;8.63;3.87;;;3.90;99.90;;;;;;5018266;28;20076;-61
2022/04/19 00:49:51;;;;;;;8.35;3.88;;;3.70;99.90;;;;;;5011925;28;20292;-62
2022/04/19 00:52:17;;;;;;;7.05;3.85;;;3.50;99.90;;;;;;5012675;28;20398;-61
2022/04/19 00:54:44;;;;;;;8.43;3.90;;;3.40;99.90;;;;;;5029532;28;20045;-61
2022/04/19 00:57:11;;;;;;;8.55;4.22;;;3.40;99.90;;;;;;5019095;28;20037;-61
2022/04/19 00:59:37;;;;;;;8.30;4.55;;;3.30;99.90;;;;;;4999342;28;20601;-61
2022/04/19 01:02:03;;;;;;;7.97;4.00;;;3.30;99.90;;;;;;5014156;28;20108;-61
2022/04/19 01:04:30;;;;;;;8.20;3.95;;;3.20;99.90;;;;;;5011564;28;20038;-61
2022/04/19 01:06:57;;;;;;;7.32;4.13;;;3.10;99.90;;;;;;5025490;28;20033;-61
2022/04/19 01:09:23;;;;;;;8.85;4.63;;;3.00;99.90;;;;;;5029947;28;20499;-61
2022/04/19 01:14:38;;;;;;;7.22;3.63;;;3.00;99.90;;;;;;5013160;28;20121;-61
2022/04/19 01:17:08;;;;;;;8.52;4.20;;;3.10;99.90;;;;;;5013436;28;20082;-63
2022/04/19 01:19:38;;;;;;;8.43;4.05;;;3.20;99.90;;;;;;5011178;28;20548;-62
2022/04/19 01:22:05;;;;;;;9.38;4.32;;;3.20;99.90;;;;;;5019197;28;20116;-61
2022/04/19 01:24:32;;;;;;;10.35;3.70;;;3.10;99.90;;;;;;5013712;28;20119;-61
2022/04/19 01:26:58;;;;;;;8.35;4.00;;;3.00;99.90;;;;;;5021908;28;20150;-61
2022/04/19 01:29:24;;;;;;;8.00;4.30;;;2.90;99.90;;;;;;5011034;28;20042;-61
2022/04/19 01:31:51;;;;;;;8.32;4.30;;;2.90;99.90;;;;;;5019310;28;20485;-61
2022/04/19 01:34:19;;;;;;;7.35;3.70;;;3.00;99.90;;;;;;5009440;28;20014;-61
2022/04/19 01:36:44;;;;;;;7.03;3.92;;;2.90;99.90;;;;;;5003593;28;20049;-61
2022/04/19 01:39:11;;;;;;;6.97;3.53;;;2.80;99.90;;;;;;5011719;28;20119;-61
2022/04/19 01:41:38;;;;;;;10.25;4.35;;;2.70;99.90;;;;;;5019361;28;20421;-61
2022/04/19 01:44:07;;;;;;;8.20;4.30;;;2.70;99.90;;;;;;5024409;28;20034;-61
2022/04/19 01:46:34;;;;;;;9.45;4.10;;;2.70;99.90;;;;;;5023962;28;20030;-61
2022/04/19 01:49:04;;;;;;;9.88;4.15;;;2.70;99.90;;;;;;5020016;28;20402;-61
2022/04/19 01:51:30;;;;;;;9.85;4.38;;;2.70;99.90;;;;;;5011900;28;20057;-61
2022/04/19 01:53:56;;;;;;;8.65;4.20;;;2.70;99.90;;;;;;5010765;28;20033;-61
2022/04/19 01:56:22;;;;;;;8.77;4.40;;;2.60;99.90;;;;;;5011511;28;20037;-61
2022/04/19 01:58:48;;;;;;;9.63;4.90;;;2.70;99.90;;;;;;5029105;28;20130;-61
2022/04/19 02:01:14;;;;;;;10.95;5.10;;;2.70;99.90;;;;;;5012551;28;20557;-61
2022/04/19 02:03:40;;;;;;;8.85;4.28;;;2.70;99.90;;;;;;5021870;28;20041;-61
2022/04/19 02:06:08;;;;;;;9.73;4.25;;;2.70;99.90;;;;;;5019408;28;20497;-61
2022/04/19 02:08:34;;;;;;;7.60;4.05;;;2.60;99.90;;;;;;5021148;28;20025;-61
2022/04/19 02:11:00;;;;;;;7.70;4.18;;;2.60;99.90;;;;;;5020253;28;20034;-61
2022/04/19 02:13:26;;;;;;;9.75;4.40;;;2.60;99.90;;;;;;5020414;28;20030;-61
2022/04/19 02:15:52;;;;;;;9.40;4.50;;;2.50;99.90;;;;;;4987531;28;20133;-61
2022/04/19 02:18:19;;;;;;;10.45;4.30;;;2.60;99.90;;;;;;4988434;28;20557;-61
2022/04/19 02:20:45;;;;;;;6.93;3.72;;;2.60;99.90;;;;;;4977807;28;20039;-61
2022/04/19 02:23:13;;;;;;;8.85;3.83;;;2.50;99.90;;;;;;4975970;28;20110;-61
2022/04/19 02:25:40;;;;;;;9.25;4.68;;;2.50;99.90;;;;;;4974744;28;20038;-61
2022/04/19 02:28:07;;;;;;;9.30;4.38;;;2.50;99.90;;;;;;4987339;28;20506;-61
2022/04/19 02:30:33;;;;;;;11.52;4.75;;;2.40;99.90;;;;;;4982990;28;20105;-61
2022/04/19 02:32:59;;;;;;;12.38;4.82;;;2.50;99.90;;;;;;4972588;28;20512;-61
2022/04/19 02:35:27;;;;;;;10.10;4.10;;;2.50;99.90;;;;;;4979616;28;20041;-61
2022/04/19 02:37:57;;;;;;;10.05;4.78;;;2.40;99.90;;;;;;4973650;28;20066;-61
2022/04/19 02:40:24;;;;;;;11.93;4.32;;;2.20;99.90;;;;;;4976783;28;20091;-61
2022/04/19 02:42:54;;;;;;;10.63;4.07;;;2.20;99.90;;;;;;4983278;28;20039;-61
2022/04/19 02:45:20;;;;;;;7.80;3.97;;;2.10;99.90;;;;;;4980804;28;20037;-61
2022/04/19 02:48:11;;;;;;;7.25;3.88;;;2.20;99.90;;;;;;4969936;28;20278;-62
2022/04/19 02:50:44;;;;;;;9.30;4.05;;;2.10;99.90;;;;;;4965253;28;20077;-61
2022/04/19 02:53:11;;;;;;;9.70;4.68;;;2.20;99.90;;;;;;4977120;28;20066;-61
2022/04/19 02:55:37;;;;;;;13.23;4.90;;;2.20;99.90;;;;;;4977708;28;20089;-62
2022/04/19 02:58:03;;;;;;;8.63;4.50;;;2.20;99.90;;;;;;4981996;28;20031;-61
2022/04/19 03:00:29;;;;;;;7.30;3.85;;;2.00;99.90;;;;;;4974845;28;20031;-61
2022/04/19 03:02:55;;;;;;;8.90;4.30;;;1.90;99.90;;;;;;4975479;28;20037;-61
2022/04/19 03:05:21;;;;;;;10.40;4.10;;;1.80;99.90;;;;;;4972308;28;20038;-61
2022/04/19 03:07:47;;;;;;;8.82;4.32;;;1.80;99.90;;;;;;4968775;28;20045;-61
2022/04/19 03:10:13;;;;;;;8.75;4.05;;;1.80;99.90;;;;;;4981936;28;20498;-61
2022/04/19 03:12:39;;;;;;;9.43;4.35;;;1.90;99.90;;;;;;4975873;28;20031;-61
2022/04/19 03:15:06;;;;;;;9.82;4.40;;;2.10;99.90;;;;;;4973090;28;20133;-60
2022/04/19 03:17:32;;;;;;;7.93;4.28;;;2.20;99.90;;;;;;5014223;28;20038;-61
2022/04/19 03:19:58;;;;;;;7.95;4.10;;;2.20;99.90;;;;;;5001808;28;20098;-61
2022/04/19 03:22:24;;;;;;;8.40;4.32;;;2.20;99.90;;;;;;5009024;28;20165;-61
2022/04/19 03:27:43;;;;;;;9.00;4.80;;;2.30;99.90;;;;;;5010749;28;20741;-61
2022/04/19 03:30:15;;;;;;;9.77;4.53;;;2.30;99.90;;;;;;5016709;28;20034;-61
2022/04/19 03:32:44;;;;;;;10.18;4.10;;;2.30;99.90;;;;;;5011246;28;20113;-62
2022/04/19 03:35:11;;;;;;;9.68;4.50;;;2.30;99.90;;;;;;5020046;28;20091;-61
2022/04/19 03:37:39;;;;;;;9.32;4.50;;;2.30;99.90;;;;;;5013275;28;20038;-61
2022/04/19 03:40:07;;;;;;;9.88;4.82;;;2.40;99.90;;;;;;5019712;28;20034;-61
2022/04/19 03:42:33;;;;;;;9.38;4.88;;;2.40;99.90;;;;;;5021923;28;20397;-61
2022/04/19 03:44:59;;;;;;;10.95;4.82;;;2.30;99.90;;;;;;5014373;28;20048;-61
2022/04/19 03:47:25;;;;;;;9.27;4.40;;;2.20;99.90;;;;;;5001416;28;20034;-61
2022/04/19 03:49:50;;;;;;;8.32;4.22;;;2.00;99.90;;;;;;5032548;28;20119;-61
2022/04/19 03:52:16;;;;;;;9.55;4.22;;;1.90;99.90;;;;;;5027849;28;20036;-61
2022/04/19 03:54:42;;;;;;;9.85;4.47;;;1.90;99.90;;;;;;5013386;28;20038;-62
2022/04/19 03:57:08;;;;;;;8.13;4.03;;;1.80;99.90;;;;;;5014125;28;20034;-61
2022/04/19 03:59:39;;;;;;;13.52;4.90;;;1.80;99.90;;;;;;5019806;28;20035;-61
2022/04/19 04:02:08;;;;;;;8.98;4.88;;;1.80;99.90;;;;;;5019247;28;20029;-61
2022/04/19 04:04:36;;;;;;;11.50;4.70;;;1.80;99.90;;;;;;5001422;28;20037;-61
2022/04/19 04:07:06;;;;;;;9.85;4.80;;;1.80;99.90;;;;;;5029789;28;20034;-61
2022/04/19 04:09:32;;;;;;;8.98;4.28;;;2.00;99.90;;;;;;5025178;28;20029;-61
2022/04/19 04:12:11;;;;;;;10.55;4.68;;;2.10;99.90;;;;;;5000204;28;20079;-61
2022/04/19 04:14:38;;;;;;;9.75;4.40;;;2.00;99.90;;;;;;5016235;28;20087;-61
2022/04/19 04:17:03;;;;;;;10.75;4.78;;;1.90;99.90;;;;;;5015096;28;20062;-61
2022/04/19 04:19:29;;;;;;;9.50;4.65;;;1.90;99.90;;;;;;5001518;28;20037;-60
2022/04/19 04:21:55;;;;;;;8.93;4.40;;;1.90;99.90;;;;;;5020519;28;20065;-61
2022/04/19 04:24:20;;;;;;;12.23;4.93;;;1.90;99.90;;;;;;5014795;28;20381;-61
2022/04/19 04:26:47;;;;;;;8.77;4.45;;;2.00;99.90;;;;;;5022954;28;20041;-61
2022/04/19 04:29:13;;;;;;;10.10;4.80;;;1.90;99.90;;;;;;5021385;28;20128;-61
2022/04/19 04:31:38;;;;;;;10.18;4.82;;;1.90;99.90;;;;;;5012524;28;20459;-60
2022/04/19 04:34:08;;;;;;;10.18;4.93;;;1.80;99.90;;;;;;5023487;28;20591;-61
2022/04/19 04:36:34;;;;;;;10.27;4.70;;;1.80;99.90;;;;;;5021754;28;20033;-61
2022/04/19 04:38:59;;;;;;;7.28;3.78;;;1.90;99.90;;;;;;5023006;28;20042;-62
2022/04/19 04:41:25;;;;;;;9.32;5.10;;;1.90;99.90;;;;;;4991455;28;20044;-61
2022/04/19 04:43:51;;;;;;;10.68;5.07;;;2.00;99.90;;;;;;5016507;28;20056;-61
2022/04/19 04:51:45;;;;;;;13.95;5.70;;;2.10;99.90;;;;;;5024908;28;20088;-62
2022/04/19 04:54:11;;;;;;;12.50;5.38;;;2.10;99.90;;;;;;5016723;28;20030;-60
2022/04/19 04:56:36;;;;;;;12.02;5.85;;;2.10;99.90;;;;;;5026859;28;20041;-60
2022/04/19 04:59:02;;;;;;;11.15;5.82;;;2.00;99.90;;;;;;5026560;28;20084;-62
2022/04/19 05:01:28;;;;;;;15.63;7.38;;;2.10;99.90;;;;;;5021286;28;20025;-61
2022/04/19 05:03:54;;;;;;;15.27;6.68;;;2.00;99.90;;;;;;5020262;28;20036;-60
2022/04/19 05:06:21;;;;;;;14.13;6.55;;;2.00;99.90;;;;;;5020253;28;20056;-61
2022/04/19 05:08:48;;;;;;;13.30;6.30;;;2.10;99.90;;;;;;5018348;28;20025;-61
2022/04/19 05:11:15;;;;;;;11.48;5.82;;;2.30;99.90;;;;;;5015284;28;20034;-61
2022/04/19 05:13:41;;;;;;;12.65;6.63;;;2.40;99.90;;;;;;5014880;28;20022;-60
2022/04/19 05:16:08;;;;;;;13.40;6.13;;;2.50;99.90;;;;;;5018889;28;20421;-61
2022/04/19 05:18:33;;;;;;;11.00;5.68;;;2.60;99.90;;;;;;5017477;28;20026;-61
2022/04/19 05:20:59;;;;;;;12.65;5.95;;;2.60;99.90;;;;;;5024521;28;20048;-61
2022/04/19 05:23:25;;;;;;;14.45;6.43;;;2.80;99.90;;;;;;5021244;28;20057;-61
2022/04/19 05:25:51;;;;;;;15.10;5.95;;;2.90;99.90;;;;;;5011363;28;20025;-61
2022/04/19 05:28:16;;;;;;;13.52;5.97;;;2.90;99.90;;;;;;5016547;28;20505;-61
2022/04/19 05:30:42;;;;;;;12.30;5.60;;;3.00;99.90;;;;;;5018953;28;20038;-61
2022/04/19 05:33:09;;;;;;;13.25;6.00;;;3.10;99.90;;;;;;5024065;28;20034;-61
2022/04/19 05:35:35;;;;;;;11.93;6.28;;;3.20;99.90;;;;;;5022031;28;20029;-61
2022/04/19 05:38:01;;;;;;;13.18;6.40;;;3.30;99.90;;;;;;5019392;28;20103;-63
2022/04/19 05:40:26;;;;;;;10.73;6.18;;;3.40;99.90;;;;;;5020375;28;20112;-61
2022/04/19 05:42:52;;;;;;;13.98;6.03;;;3.50;99.90;;;;;;5023739;28;20057;-61
2022/04/19 05:45:18;;;;;;;11.35;5.57;;;3.70;99.90;;;;;;5020459;28;20022;-61
2022/04/19 05:47:43;;;;;;;11.43;5.30;;;3.80;99.90;;;;;;5020222;28;20030;-62
2022/04/19 05:50:10;;;;;;;13.32;5.82;;;4.00;99.90;;;;;;5022400;28;20065;-62
2022/04/19 05:52:36;;;;;;;16.25;7.38;;;4.10;99.90;;;;;;5018136;28;20483;-60
2022/04/19 05:55:02;;;;;;;15.45;6.28;;;4.20;99.90;;;;;;5015777;28;20037;-61
2022/04/19 05:57:27;;;;;;;14.10;6.35;;;4.10;99.90;;;;;;5003210;28;20459;-60
2022/04/19 05:59:53;;;;;;;13.35;6.13;;;4.10;99.90;;;;;;5012568;28;20101;-60
2022/04/19 06:05:05;;;;;;;12.95;6.35;;;4.30;99.90;;;;;;4972617;28;20530;-60
2022/04/19 06:07:31;;;;;;;13.57;5.85;;;4.50;99.90;;;;;;5009729;28;20208;-60
2022/04/19 06:09:58;;;;;;;9.88;5.50;;;4.60;99.90;;;;;;5013668;28;20462;-61
2022/04/19 06:12:24;;;;;;;11.23;5.97;;;4.80;99.90;;;;;;5011853;28;20030;-61
2022/04/19 06:14:49;;;;;;;12.23;6.10;;;4.90;99.90;;;;;;5015474;28;20107;-61
2022/04/19 06:17:21;;;;;;;13.65;6.60;;;5.00;99.90;;;;;;5019756;28;20458;-60
2022/04/19 06:19:47;;;;;;;13.13;6.43;;;5.30;99.90;;;;;;4994128;28;20025;-60
2022/04/19 06:22:13;;;;;;;15.70;6.20;;;5.40;99.90;;;;;;5016711;28;20026;-60
2022/04/19 06:24:39;;;;;;;12.63;6.00;;;5.50;99.90;;;;;;5016238;28;20100;-60
2022/04/19 06:27:05;;;;;;;13.13;5.75;;;5.40;99.90;;;;;;5010836;28;20185;-60
2022/04/19 06:29:31;;;;;;;11.25;5.70;;;5.50;99.90;;;;;;5015511;28;20043;-61
2022/04/19 06:31:56;;;;;;;10.68;5.45;;;5.60;99.90;;;;;;5010454;28;20470;-61
2022/04/19 06:34:22;;;;;;;11.10;5.22;;;5.70;99.90;;;;;;5008890;28;20034;-61
2022/04/19 06:36:48;;;;;;;12.20;5.40;;;5.90;99.90;;;;;;5010291;28;20033;-60
2022/04/19 06:39:13;;;;;;;12.75;5.50;;;6.10;99.90;;;;;;5017524;28;20056;-61
2022/04/19 06:41:41;;;;;;;11.68;5.45;;;6.30;99.90;;;;;;5014887;28;20129;-61
2022/04/19 06:44:08;;;;;;;11.85;5.38;;;6.40;99.90;;;;;;5016740;28;20033;-61
2022/04/19 06:46:34;;;;;;;10.98;6.13;;;6.60;99.90;;;;;;5018241;28;20216;-61
2022/04/19 06:49:00;;;;;;;9.45;5.38;;;6.80;99.90;;;;;;5017258;28;20042;-61
2022/04/19 06:51:25;;;;;;;9.93;5.30;;;7.00;99.90;;;;;;5009020;28;20030;-60
2022/04/19 06:53:51;;;;;;;10.82;5.93;;;7.30;99.90;;;;;;5017523;28;20052;-61
2022/04/19 06:56:18;;;;;;;11.50;5.28;;;7.50;99.90;;;;;;5024526;28;20030;-61
2022/04/19 06:58:44;;;;;;;11.13;5.55;;;7.50;99.90;;;;;;5015748;28;20134;-60
2022/04/19 07:01:10;;;;;;;9.70;5.32;;;7.60;99.90;;;;;;5020027;28;20468;-61
2022/04/19 07:03:37;;;;;;;12.05;5.93;;;7.60;99.90;;;;;;5020194;28;20272;-61
2022/04/19 07:06:03;;;;;;;11.65;5.63;;;7.70;99.90;;;;;;5019960;28;20032;-61
2022/04/19 07:08:30;;;;;;;11.27;5.60;;;7.90;99.90;;;;;;5017935;28;20064;-61
2022/04/19 07:10:56;;;;;;;11.20;5.53;;;8.10;99.90;;;;;;5019116;28;20038;-61
2022/04/19 07:13:23;;;;;;;9.60;5.22;;;8.30;99.90;;;;;;5011789;28;20076;-61
2022/04/19 07:15:50;;;;;;;13.32;5.32;;;8.50;99.90;;;;;;5018752;28;20050;-60
2022/04/19 07:18:17;;;;;;;11.82;5.47;;;8.80;99.90;;;;;;5017430;28;20030;-59
2022/04/19 07:28:56;;;;;;;9.20;4.25;;;10.00;99.90;;;;;;5016185;28;20211;-60
2022/04/19 07:31:22;;;;;;;8.30;4.43;;;10.20;99.90;;;;;;5012312;28;20470;-60
2022/04/19 07:33:48;;;;;;;9.10;4.40;;;10.40;99.90;;;;;;5019827;28;20033;-60
2022/04/19 07:36:14;;;;;;;7.47;4.28;;;10.60;99.90;;;;;;5020010;28;20065;-60
2022/04/19 07:38:40;;;;;;;8.00;4.85;;;10.80;99.90;;;;;;4995090;28;20065;-61
2022/04/19 07:41:07;;;;;;;8.25;4.75;;;10.90;99.90;;;;;;5018766;28;20076;-60
2022/04/19 07:43:33;;;;;;;9.52;4.70;;;10.90;99.90;;;;;;5008335;28;20072;-69
2022/04/19 07:45:58;;;;;;;8.65;4.68;;;11.10;99.90;;;;;;5020012;28;20025;-68
2022/04/19 07:48:24;;;;;;;8.55;4.53;;;11.20;99.90;;;;;;5008622;28;20041;-71
2022/04/19 07:50:50;;;;;;;11.50;4.85;;;11.40;99.90;;;;;;5019179;28;20041;-70
2022/04/19 07:53:16;;;;;;;9.25;5.05;;;11.60;99.90;;;;;;5019598;28;20029;-70
2022/04/19 07:55:42;;;;;;;9.65;4.80;;;11.80;99.90;;;;;;4995361;28;20116;-70
2022/04/19 07:58:08;;;;;;;8.98;4.75;;;11.90;99.90;;;;;;5017308;28;20037;-70
2022/04/19 08:00:34;;;;;;;10.63;4.88;;;12.00;99.90;;;;;;4996178;28;20048;-69
2022/04/19 08:02:59;;;;;;;10.93;4.63;;;12.20;99.90;;;;;;5008405;28;20041;-71
2022/04/19 08:05:26;;;;;;;9.25;4.47;;;12.40;99.90;;;;;;5002116;28;20034;-69
2022/04/19 08:07:52;;;;;;;9.52;4.57;;;12.20;99.90;;;;;;4997433;28;20057;-70
2022/04/19 08:10:19;;;;;;;8.93;4.38;;;12.30;99.90;;;;;;5024079;28;20033;-69
2022/04/19 08:12:45;;;;;;;9.13;4.40;;;12.50;99.90;;;;;;5023223;28;20037;-69
2022/04/19 08:15:13;;;;;;;9.57;5.07;;;12.60;99.60;;;;;;5019406;28;20041;-67
2022/04/19 08:17:39;;;;;;;8.10;4.40;;;12.60;97.70;;;;;;5013582;28;20188;-66
2022/04/19 08:20:05;;;;;;;8.05;4.47;;;12.80;98.00;;;;;;5013892;28;20558;-67
2022/04/19 08:22:31;;;;;;;7.90;4.65;;;13.10;99.90;;;;;;5011875;28;20029;-69
2022/04/19 08:24:57;;;;;;;9.75;5.13;;;13.40;99.20;;;;;;5009330;28;20037;-69
2022/04/19 08:27:22;;;;;;;9.00;4.60;;;13.70;97.40;;;;;;5010645;28;20449;-69
2022/04/19 08:29:48;;;;;;;11.30;4.70;;;13.90;95.60;;;;;;5012139;28;20037;-70
2022/04/19 08:32:14;;;;;;;9.55;5.07;;;14.10;94.50;;;;;;5000671;28;20052;-67
2022/04/19 08:34:41;;;;;;;13.20;5.32;;;14.20;95.10;;;;;;5018020;28;20037;-70
2022/04/19 08:37:07;;;;;;;9.27;5.45;;;14.20;94.60;;;;;;5015300;28;20061;-71
2022/04/19 08:39:33;;;;;;;10.48;5.10;;;14.10;91.40;;;;;;5013877;28;20024;-69
2022/04/19 08:41:59;;;;;;;10.15;5.05;;;14.10;93.30;;;;;;5009926;28;20041;-70
2022/04/19 08:44:25;;;;;;;9.52;5.28;;;14.20;94.10;;;;;;5020436;28;20018;-68
2022/04/19 08:46:55;;;;;;;10.23;5.30;;;14.10;91.40;;;;;;5016753;28;20055;-68
2022/04/19 08:49:21;;;;;;;11.05;5.88;;;14.20;86.70;;;;;;5018734;28;20040;-69
2022/04/19 08:51:47;;;;;;;9.40;4.93;;;14.40;91.70;;;;;;5019997;28;20092;-68
2022/04/19 08:59:42;;;;;;;10.30;5.43;;;15.00;77.50;;;;;;5017636;28;20033;-71
2022/04/19 09:02:17;;;;;;;11.75;5.65;;;14.80;78.90;;;;;;5024314;28;20029;-68
2022/04/19 09:04:43;;;;;;;10.57;5.45;;;15.00;87.10;;;;;;5018167;28;20032;-67
2022/04/19 09:07:09;;;;;;;12.90;5.60;;;15.40;86.40;;;;;;5020969;28;20030;-68
2022/04/19 09:09:36;;;;;;;9.57;5.60;;;15.40;79.30;;;;;;5025714;28;20129;-67
2022/04/19 09:12:09;;;;;;;10.70;5.22;;;15.40;81.10;;;;;;5023922;28;20049;-70
2022/04/19 09:14:35;;;;;;;11.32;6.28;;;15.50;79.70;;;;;;4996316;28;20033;-68
2022/04/19 09:17:06;;;;;;;11.88;5.55;;;15.70;76.60;;;;;;5019295;28;20100;-69
2022/04/19 09:19:32;;;;;;;12.30;5.70;;;15.80;69.90;;;;;;5022589;28;20033;-70
2022/04/19 09:21:58;;;;;;;9.68;5.20;;;15.80;72.60;;;;;;5014229;28;20466;-69
2022/04/19 09:24:28;;;;;;;11.45;5.47;;;16.10;76.50;;;;;;5011230;28;20080;-68
2022/04/19 09:26:54;;;;;;;10.98;5.68;;;16.10;70.30;;;;;;5017560;28;20100;-69
2022/04/19 09:29:21;;;;;;;11.13;5.97;;;16.20;68.90;;;;;;5022746;28;20025;-69
2022/04/19 09:31:52;;;;;;;8.93;5.22;;;16.20;70.70;;;;;;5013734;28;20033;-69
2022/04/19 09:34:30;;;;;;;10.40;5.65;;;16.50;71.00;;;;;;5024078;28;20055;-71
2022/04/19 09:37:13;;;;;;;9.60;5.55;;;16.30;78.10;;;;;;5023633;28;20037;-67
2022/04/19 09:39:44;;;;;;;10.73;5.43;;;16.30;70.00;;;;;;5027679;28;20025;-67
2022/04/19 09:42:14;;;;;;;15.00;6.18;;;16.50;66.20;;;;;;5023163;28;20034;-72
2022/04/19 09:44:40;;;;;;;10.45;5.50;;;16.50;69.60;;;;;;5013954;28;20033;-68
2022/04/19 09:47:07;;;;;;;8.80;4.72;;;16.80;66.20;;;;;;5016691;28;20034;-69
2022/04/19 09:49:50;;;;;;;10.30;5.25;;;16.90;60.00;;;;;;5019936;28;20048;-69
2022/04/19 09:52:43;;;;;;;11.48;5.20;;;17.20;65.20;;;;;;5016213;28;20040;-69
2022/04/19 09:55:11;;;;;;;10.05;5.50;;;17.50;58.10;;;;;;5002684;28;20037;-70
2022/04/19 09:57:39;;;;;;;9.63;5.47;;;17.10;58.10;;;;;;5015570;28;20032;-70
2022/04/19 10:00:07;;;;;;;11.93;6.05;;;17.20;57.60;;;;;;5014033;28;20062;-69
2022/04/19 10:08:21;;;;;;;9.52;5.07;;;17.60;61.00;;;;;;5020629;28;20064;-69
2022/04/19 10:10:49;;;;;;;11.25;4.63;;;17.60;55.90;;;;;;5013751;28;20025;-69
2022/04/19 10:13:17;;;;;;;9.63;5.22;;;17.60;55.40;;;;;;5019934;28;20052;-70
2022/04/19 10:15:43;;;;;;;18.88;5.90;;;17.60;58.90;;;;;;5019626;28;20402;-69
2022/04/19 10:18:12;;;;;;;10.57;5.18;;;18.00;62.40;;;;;;5021575;28;20037;-69
2022/04/19 10:20:43;;;;;;;13.02;5.40;;;18.00;58.50;;;;;;5025835;28;20029;-69
2022/04/19 10:23:09;;;;;;;11.80;5.60;;;17.70;53.30;;;;;;5010815;28;20026;-69
2022/04/19 10:25:43;;;;;;;11.57;5.90;;;17.80;59.00;;;;;;5012594;28;20048;-69
2022/04/19 10:28:11;;;;;;;12.30;5.88;;;17.90;62.70;;;;;;5018100;28;20021;-69
2022/04/19 10:30:38;;;;;;;10.15;5.63;;;17.60;57.60;;;;;;5011880;28;20030;-69
2022/04/19 10:33:44;;;;;;;8.38;4.70;;;17.80;59.20;;;;;;5014094;28;20437;-70
2022/04/19 10:36:42;;;;;;;10.27;5.20;;;18.10;56.00;;;;;;5015333;28;20518;-70
2022/04/19 10:39:11;;;;;;;12.90;5.40;;;18.30;53.40;;;;;;4971805;28;20486;-70
2022/04/19 10:42:01;;;;;;;11.77;5.68;;;18.20;54.30;;;;;;4995027;28;20026;-69
2022/04/19 10:44:43;;;;;;;9.40;5.88;;;18.10;52.50;;;;;;5014205;28;20065;-68
2022/04/19 10:47:18;;;;;;;9.23;5.38;;;18.30;54.90;;;;;;5018362;28;20111;-68
2022/04/19 10:49:51;;;;;;;11.65;5.13;;;18.30;53.70;;;;;;5022645;28;20652;-69
2022/04/19 10:52:39;;;;;;;13.70;5.15;;;18.50;53.40;;;;;;5011382;28;20096;-68
2022/04/19 10:55:08;;;;;;;9.20;5.63;;;18.80;54.10;;;;;;5019028;28;20486;-70
2022/04/19 11:00:43;;;;;;;11.32;5.20;;;19.30;53.40;;;;;;5018193;28;20441;-70
2022/04/19 11:03:21;;;;;;;9.52;5.60;;;19.30;53.50;;;;;;5016385;28;20541;-68
2022/04/19 11:05:52;;;;;;;10.95;5.45;;;19.00;50.30;;;;;;5011558;28;20029;-67
2022/04/19 11:08:20;;;;;;;;;;;18.70;50.80;;;;;;5019557;28;20060;-68
2022/04/19 11:10:47;;;;;;;11.13;4.82;;;18.80;53.60;;;;;;5015353;28;20383;-68
2022/04/19 11:13:13;;;;;;;8.85;5.05;;;18.90;50.20;;;;;;5013347;28;20536;-69
2022/04/19 11:15:42;;;;;;;9.63;5.15;;;18.90;51.70;;;;;;5006843;28;20057;-67
2022/04/19 11:18:23;;;;;;;14.90;5.20;;;18.90;52.60;;;;;;5014572;28;20076;-69
2022/04/19 11:20:51;;;;;;;8.07;4.95;;;18.90;50.10;;;;;;5008484;28;20105;-69
2022/04/19 11:23:22;;;;;;;9.45;5.20;;;18.80;50.90;;;;;;5019209;28;20032;-65
2022/04/19 11:25:49;;;;;;;11.05;5.78;;;18.70;56.20;;;;;;5011572;28;20034;-66
2022/04/19 11:28:30;;;;;;;11.48;4.65;;;18.80;55.40;;;;;;5023229;28;20061;-66
2022/04/19 11:30:55;;;;;;;6.60;4.32;;;18.90;52.50;;;;;;5000506;28;20061;-67
2022/04/19 11:33:33;;;;;;;8.43;4.40;;;19.00;53.70;;;;;;5014766;28;20104;-67
2022/04/19 11:36:05;;;;;;;10.68;5.20;;;19.20;50.00;;;;;;5012160;28;20452;-69
2022/04/19 11:38:39;;;;;;;8.60;4.85;;;19.40;54.00;;;;;;5014587;28;20026;-69
2022/04/19 11:46:44;;;;;;;6.50;3.90;;;19.50;49.80;;;;;;5018525;28;20079;-67
2022/04/19 11:49:30;;;;;;;11.20;3.83;;;19.60;47.60;;;;;;5002364;28;20052;-67
2022/04/19 11:51:58;;;;;;;6.75;3.20;;;19.60;50.30;;;;;;5017706;28;20045;-67
2022/04/19 11:54:25;;;;;;;5.88;3.38;;;19.80;49.70;;;;;;5014248;28;20026;-67
2022/04/19 11:57:04;;;;;;;6.25;3.50;;;19.70;47.40;;;;;;5002474;28;20048;-69
2022/04/19 11:59:35;;;;;;;6.13;3.58;;;19.50;45.30;;;;;;5018360;28;20064;-69
2022/04/19 12:02:03;;;;;;;6.20;3.53;;;19.60;49.00;;;;;;5012551;28;20058;-67
2022/04/19 12:04:29;;;;;;;9.05;4.88;;;19.80;50.30;;;;;;5027369;28;20087;-68
2022/04/19 12:06:58;;;;;;;9.05;4.70;;;19.70;49.60;;;;;;5017624;28;20033;-68
2022/04/19 12:09:24;;;;;;;6.90;4.28;;;19.90;52.10;;;;;;5020197;28;20378;-67
2022/04/19 12:11:50;;;;;;;7.82;4.82;;;20.10;47.50;;;;;;5023567;28;20029;-68
2022/04/19 12:14:29;;;;;;;7.65;4.00;;;20.30;49.70;;;;;;5026829;28;20034;-69
2022/04/19 12:17:18;;;;;;;7.23;4.23;;;20.30;49.20;;;;;;4988029;28;20224;-67
2022/04/19 12:19:44;;;;;;;7.32;4.53;;;20.70;51.00;;;;;;5019835;28;20037;-66
2022/04/19 12:22:21;;;;;;;7.55;3.80;;;20.20;47.00;;;;;;5019371;28;20038;-65
2022/04/19 12:24:53;;;;;;;11.20;4.88;;;19.50;49.70;;;;;;5014678;28;20033;-67
2022/04/19 12:27:35;;;;;;;6.40;3.60;;;19.30;52.20;;;;;;5014686;28;20029;-68
2022/04/19 12:30:12;;;;;;;6.88;4.10;;;19.60;55.60;;;;;;5016298;28;20037;-67
2022/04/19 12:32:59;;;;;;;6.70;3.35;;;20.00;52.10;;;;;;5013975;28;20026;-65
2022/04/19 12:35:34;;;;;;;6.18;3.60;;;19.90;46.10;;;;;;5012460;28;20129;-67
2022/04/19 12:38:04;;;;;;;6.20;3.10;;;19.90;49.10;;;;;;5017432;28;20117;-66
2022/04/19 12:40:30;;;;;;;11.55;3.63;;;19.30;47.50;;;;;;5021451;28;20033;-65
2022/04/19 12:42:56;;;;;;;6.88;4.00;;;19.50;48.00;;;;;;4999012;28;20033;-66
2022/04/19 12:45:21;;;;;;;6.22;3.40;;;19.90;49.30;;;;;;5025312;28;20112;-65
2022/04/19 12:47:48;;;;;;;5.57;3.10;;;19.70;45.50;;;;;;5019551;28;20501;-65
2022/04/19 12:50:16;;;;;;;5.63;3.65;;;19.60;46.30;;;;;;5020143;28;20430;-64
2022/04/19 12:52:43;;;;;;;6.32;3.72;;;19.90;47.70;;;;;;5025254;28;20061;-66
2022/04/19 12:55:09;;;;;;;5.70;3.72;;;20.20;49.30;;;;;;4997872;28;20444;-67
2022/04/19 12:57:39;;;;;;;6.53;3.35;;;20.00;44.90;;;;;;5021660;28;20037;-65
2022/04/19 13:00:14;;;;;;;3.92;2.22;;;19.80;50.20;;;;;;5018756;28;20030;-66
2022/04/19 13:02:43;;;;;;;4.60;2.63;;;20.10;49.90;;;;;;5012521;28;20860;-68
2022/04/19 13:05:09;;;;;;;4.47;2.78;;;20.30;47.30;;;;;;5014353;28;20022;-66
2022/04/19 13:13:06;;;;;;;5.22;2.90;;;20.20;42.50;;;;;;5015082;28;20044;-66
2022/04/19 13:15:33;;;;;;;6.38;3.10;;;19.60;42.80;;;;;;4997590;28;20050;-66
2022/04/19 13:17:58;;;;;;;4.75;2.90;;;19.60;46.70;;;;;;5018736;28;20055;-66
2022/04/19 13:20:24;;;;;;;7.82;3.28;;;19.30;44.10;;;;;;5024542;28;21630;-68
2022/04/19 13:22:50;;;;;;;6.22;3.65;;;19.70;47.90;;;;;;5017135;28;20033;-65
2022/04/19 13:25:16;;;;;;;6.07;2.80;;;20.10;49.00;;;;;;5016598;28;20029;-65
2022/04/19 13:27:42;;;;;;;5.13;3.08;;;20.20;45.90;;;;;;5021868;28;20117;-65
2022/04/19 13:30:13;;;;;;;4.35;2.50;;;20.00;44.70;;;;;;5013598;28;20101;-65
2022/04/19 13:32:39;;;;;;;12.77;4.10;;;20.00;49.90;;;;;;5014564;28;20113;-66
2022/04/19 13:35:06;;;;;;;30.45;7.05;;;20.10;46.30;;;;;;5024135;28;20080;-66
2022/04/19 13:40:17;;;;;;;4.93;2.40;;;20.40;45.70;;;;;;5017084;28;20071;-66
2022/04/19 13:42:42;;;;;;;5.00;2.35;;;20.50;43.30;;;;;;5011126;28;20113;-66